Time;durP1;ratioP1;P1;durP2;ratioP2;P2;SDS_P1;SDS_P2;PMS_P1;PMS_P2;Temp;Humidity;BMP_temperature;BMP_pressure;BME280_temperature;BME280_humidity;BME280_pressure;Samples;Min_cycle;Max_cycle;Signal;HPM_P1;HPM_P2
2023/10/10 00:01:04;;;;;;;;;;;;;;;12.25;80.43;95023.16;4903899;29;20477;-75
2023/10/10 00:03:39;;;;;;;7.00;3.15;;;;;;;12.29;80.16;95026.19;4887501;29;20036;-75
2023/10/10 00:06:09;;;;;;;7.95;3.13;;;;;;;12.33;79.76;95017.06;4906230;29;20115;-76
2023/10/10 00:08:40;;;;;;;6.10;3.05;;;;;;;12.31;80.41;95019.03;4904095;29;20529;-76
2023/10/10 00:11:09;;;;;;;7.82;3.35;;;;;;;12.21;80.86;95015.88;4902295;29;20031;-76
2023/10/10 00:13:42;;;;;;;6.07;2.92;;;;;;;12.30;81.09;95014.81;4888128;29;20035;-76
2023/10/10 00:16:19;;;;;;;10.60;3.03;;;;;;;12.31;80.86;95001.66;4888714;29;20372;-76
2023/10/10 00:18:46;;;;;;;8.68;3.40;;;;;;;12.27;80.84;95000.38;4904572;29;20139;-76
2023/10/10 00:21:22;;;;;;;5.18;2.47;;;;;;;12.21;80.66;94998.50;4903842;29;20494;-76
2023/10/10 00:23:48;;;;;;;7.20;2.75;;;;;;;12.25;80.29;94996.38;4890031;29;20413;-76
2023/10/10 00:26:26;;;;;;;9.63;2.60;;;;;;;12.23;80.27;94988.78;4903823;29;20032;-75
2023/10/10 00:28:56;;;;;;;11.05;2.97;;;;;;;12.33;80.01;94988.50;4905059;29;20067;-75
2023/10/10 00:31:26;;;;;;;8.43;2.63;;;;;;;12.30;80.38;94981.03;4919182;29;20020;-75
2023/10/10 00:33:52;;;;;;;5.65;2.83;;;;;;;12.26;81.20;94978.03;4918122;29;20039;-77
2023/10/10 00:36:22;;;;;;;8.00;2.70;;;;;;;12.37;81.67;94982.75;4871520;29;20032;-76
2023/10/10 00:38:57;;;;;;;7.43;2.53;;;;;;;12.35;82.43;94992.53;4886268;29;20092;-76
2023/10/10 00:41:24;;;;;;;8.15;2.78;;;;;;;12.11;85.61;94996.19;4905495;29;20028;-76
2023/10/10 00:43:49;;;;;;;8.90;3.38;;;;;;;12.20;86.42;95002.09;4903780;29;20150;-76
2023/10/10 00:46:14;;;;;;;6.18;2.95;;;;;;;12.36;86.34;95004.50;4904982;29;20482;-76
2023/10/10 00:48:40;;;;;;;6.40;3.00;;;;;;;12.29;86.34;95000.22;4872177;29;20466;-76
2023/10/10 00:51:11;;;;;;;5.82;2.85;;;;;;;12.13;87.08;94996.84;4899237;29;20088;-76
2023/10/10 00:53:39;;;;;;;4.70;2.75;;;;;;;12.07;87.54;95001.94;4917552;29;20032;-75
2023/10/10 00:56:08;;;;;;;10.20;2.95;;;;;;;12.09;86.32;95011.16;4917498;29;20047;-75
2023/10/10 00:58:38;;;;;;;9.20;3.17;;;;;;;12.14;84.77;95006.22;4919090;29;20505;-76
2023/10/10 01:01:08;;;;;;;4.78;2.67;;;;;;;12.19;84.65;95004.88;4916892;29;20036;-75
2023/10/10 01:03:35;;;;;;;11.98;2.97;;;;;;;12.21;84.18;94995.09;4887080;29;20032;-75
2023/10/10 01:06:05;;;;;;;8.23;2.83;;;;;;;12.20;84.77;94989.09;4887471;29;20080;-76
2023/10/10 01:08:51;;;;;;;4.80;2.47;;;;;;;12.35;83.49;94991.72;4903369;29;20051;-76
2023/10/10 01:11:17;;;;;;;4.80;2.80;;;;;;;12.36;84.31;95001.13;4905064;29;20044;-77
2023/10/10 01:13:42;;;;;;;5.10;2.45;;;;;;;12.30;84.99;95000.03;4902993;29;20032;-76
2023/10/10 01:16:09;;;;;;;8.40;3.00;;;;;;;12.08;86.57;94996.53;4872486;29;20537;-76
2023/10/10 01:19:02;;;;;;;3.78;2.40;;;;;;;11.90;88.37;94990.91;4903812;29;20027;-75
2023/10/10 01:21:31;;;;;;;4.60;2.25;;;;;;;12.14;87.40;94993.22;4901439;29;20506;-75
2023/10/10 01:24:06;;;;;;;3.83;2.58;;;;;;;12.11;87.82;95003.97;4904832;29;20028;-75
2023/10/10 01:26:33;;;;;;;6.53;3.20;;;;;;;11.97;89.02;94998.78;4901432;29;20490;-76
2023/10/10 01:29:12;;;;;;;4.05;2.55;;;;;;;12.27;88.67;94991.78;4888164;29;20084;-75
2023/10/10 01:31:37;;;;;;;;;;;;;;;12.20;87.58;94991.69;4904041;29;20051;-75
2023/10/10 01:34:08;;;;;;;6.03;2.80;;;;;;;12.11;87.40;94995.38;4903502;29;19922;-76
2023/10/10 01:36:35;;;;;;;4.55;3.38;;;;;;;12.09;86.90;94998.16;4904576;29;20359;-76
2023/10/10 01:39:19;;;;;;;5.13;3.47;;;;;;;12.12;86.01;95000.41;4903086;29;20028;-76
2023/10/10 01:41:48;;;;;;;7.65;3.22;;;;;;;12.23;84.89;94999.16;4903324;29;20017;-76
2023/10/10 01:44:22;;;;;;;11.40;3.60;;;;;;;12.16;84.62;94993.06;4902951;29;20430;-76
2023/10/10 01:46:50;;;;;;;9.50;3.42;;;;;;;12.27;84.02;94999.56;4907316;29;20863;-78
2023/10/10 01:49:21;;;;;;;4.40;2.57;;;;;;;12.31;83.43;95003.44;4907660;29;20035;-76
2023/10/10 01:51:53;;;;;;;10.02;3.08;;;;;;;12.33;82.92;95004.88;4906635;29;20508;-76
2023/10/10 01:54:19;;;;;;;6.05;2.92;;;;;;;12.37;82.75;94994.91;4892231;29;20166;-76
2023/10/10 01:56:45;;;;;;;9.50;3.47;;;;;;;12.36;82.82;95006.31;4906178;29;20036;-75
2023/10/10 01:59:19;;;;;;;5.97;2.70;;;;;;;12.06;85.23;95002.91;4906826;29;20032;-75
2023/10/10 02:01:46;;;;;;;5.53;2.88;;;;;;;12.06;86.51;95005.50;4905109;29;20052;-75
2023/10/10 02:04:11;;;;;;;3.33;2.72;;;;;;;11.97;88.13;95003.97;4906078;29;20395;-75
2023/10/10 02:06:40;;;;;;;6.93;3.00;;;;;;;12.01;88.22;94995.63;4907798;29;20103;-76
2023/10/10 02:09:53;;;;;;;5.28;3.10;;;;;;;11.97;88.35;95001.38;4906524;29;20024;-76
2023/10/10 02:12:04;;;;;;;7.38;3.40;;;;;;;12.02;88.23;95007.66;4900247;29;20417;-76
2023/10/10 02:14:30;;;;;;;6.30;3.28;;;;;;;12.13;88.61;95004.63;4890202;29;20607;-75
2023/10/10 02:16:58;;;;;;;7.85;3.33;;;;;;;11.68;90.62;95014.28;4881608;29;20110;-75
2023/10/10 02:19:32;;;;;;;;;;;;;;;11.89;90.67;95012.63;4893696;29;20039;-75
2023/10/10 02:22:22;;;;;;;10.98;3.38;;;;;;;11.86;90.19;95013.00;4890335;29;19974;-76
2023/10/10 02:25:31;;;;;;;4.53;3.13;;;;;;;11.69;92.26;95010.72;4907721;29;20031;-75
2023/10/10 02:27:53;;;;;;;5.45;2.78;;;;;;;11.75;92.14;95018.59;4905613;29;20402;-75
2023/10/10 02:30:24;;;;;;;5.22;2.65;;;;;;;11.67;92.20;95012.66;4906685;29;20048;-75
2023/10/10 02:32:50;;;;;;;5.25;3.08;;;;;;;11.70;91.80;95020.09;4908013;29;20032;-76
2023/10/10 02:35:27;;;;;;;6.10;3.17;;;;;;;11.73;91.00;95020.56;4906373;29;20028;-76
2023/10/10 02:37:54;;;;;;;5.72;3.17;;;;;;;11.71;90.56;95019.16;4909050;29;20095;-76
2023/10/10 02:40:30;;;;;;;6.10;3.17;;;;;;;11.61;91.16;95029.72;4888596;29;20047;-76
2023/10/10 02:45:44;;;;;;;6.22;3.13;;;;;;;11.53;91.15;95025.41;4893153;29;20035;-75
2023/10/10 02:48:10;;;;;;;5.80;3.30;;;;;;;11.64;90.47;95025.00;4904342;29;20043;-75
2023/10/10 02:50:39;;;;;;;7.15;3.53;;;;;;;11.62;91.05;95020.97;4907153;29;20128;-76
2023/10/10 02:53:08;;;;;;;4.78;2.80;;;;;;;11.52;91.59;95015.22;4905446;29;20693;-76
2023/10/10 02:55:41;;;;;;;6.70;2.80;;;;;;;11.50;91.90;95019.75;4906826;29;20116;-76
2023/10/10 02:58:20;;;;;;;6.35;3.17;;;;;;;11.50;92.35;95017.97;4895046;29;20067;-76
2023/10/10 03:00:48;;;;;;;7.30;3.20;;;;;;;11.51;92.83;95023.97;4907330;29;20028;-75
2023/10/10 03:03:18;;;;;;;5.50;3.20;;;;;;;11.50;92.47;95024.94;4896059;29;20058;-75
2023/10/10 03:05:54;;;;;;;5.10;3.47;;;;;;;11.51;91.97;95024.78;4905061;29;20107;-75
2023/10/10 03:11:00;;;;;;;6.03;2.85;;;;;;;11.71;91.02;95014.78;4914833;29;20040;-76
2023/10/10 03:13:32;;;;;;;6.43;3.33;;;;;;;11.79;90.30;95016.47;4906643;29;20031;-77
2023/10/10 03:29:20;;;;;;;4.47;3.20;;;;;;;12.26;89.98;95024.75;4889607;29;20865;-75
2023/10/10 03:31:48;;;;;;;6.82;3.28;;;;;;;12.20;90.04;95025.44;4887551;29;20032;-75
2023/10/10 03:36:48;;;;;;;6.05;3.25;;;;;;;12.36;89.76;95038.25;4887435;29;20498;-76
2023/10/10 03:39:41;;;;;;;9.00;4.20;;;;;;;12.33;91.34;95028.22;4906304;29;20052;-76
2023/10/10 05:23:35;;;;;;;9.82;4.57;;;;;;;14.41;94.32;95083.63;4885525;29;20460;-76
2023/10/10 05:26:02;;;;;;;10.35;3.92;;;;;;;14.42;94.29;95075.59;4888337;29;20032;-77
2023/10/10 05:28:32;;;;;;;12.02;4.50;;;;;;;14.44;94.02;95081.44;4868143;29;20029;-76
2023/10/10 05:30:59;;;;;;;7.03;4.10;;;;;;;14.49;94.50;95088.69;4881060;29;20024;-78
2023/10/10 05:33:26;;;;;;;14.50;4.30;;;;;;;14.47;94.83;95088.88;4886017;29;20033;-78
2023/10/10 05:35:59;;;;;;;12.70;4.13;;;;;;;14.54;94.04;95084.53;4871064;29;20033;-76
2023/10/10 05:38:25;;;;;;;11.77;3.70;;;;;;;14.55;94.89;95090.53;4882860;29;20125;-78
2023/10/10 05:40:51;;;;;;;13.27;4.05;;;;;;;14.56;94.71;95081.72;4886929;29;20447;-77
2023/10/10 05:43:17;;;;;;;7.97;4.00;;;;;;;14.67;94.09;95092.41;4869589;29;20028;-78
2023/10/10 05:45:43;;;;;;;11.27;4.07;;;;;;;14.73;93.86;95098.66;4883017;29;20048;-76
2023/10/10 05:48:09;;;;;;;16.88;4.60;;;;;;;14.79;93.90;95095.28;4869137;29;20096;-76
2023/10/10 06:02:55;;;;;;;9.57;4.63;;;;;;;15.49;90.90;95099.41;5089844;27;20407;-74
2023/10/10 06:05:20;;;;;;;12.75;4.13;;;;;;;15.56;91.36;95108.06;5072744;28;20047;-75
2023/10/10 06:07:48;;;;;;;8.50;3.90;;;;;;;15.56;91.17;95108.88;5074298;28;20103;-75
2023/10/10 06:10:16;;;;;;;9.93;4.03;;;;;;;15.59;91.57;95108.47;5077352;28;20025;-75
2023/10/10 06:12:46;;;;;;;11.52;4.13;;;;;;;15.63;91.57;95106.28;5068423;28;20485;-74
2023/10/10 06:15:19;;;;;;;7.22;4.47;;;;;;;15.54;92.71;95121.28;5076981;28;20059;-75
2023/10/10 06:17:49;;;;;;;10.00;4.30;;;;;;;15.39;92.86;95125.03;5074743;28;20818;-74
2023/10/10 06:20:21;;;;;;;9.95;4.75;;;;;;;15.65;91.76;95125.13;5078203;28;20039;-75
2023/10/10 06:22:54;;;;;;;10.60;3.70;;;;;;;15.57;91.63;95126.13;5077338;28;20063;-74
2023/10/10 06:25:21;;;;;;;11.80;4.65;;;;;;;15.52;91.82;95119.88;5091987;28;20112;-75
2023/10/10 06:27:54;;;;;;;7.13;3.90;;;;;;;15.62;91.22;95125.53;5074259;28;20039;-75
2023/10/10 06:30:20;;;;;;;6.72;3.75;;;;;;;15.76;91.05;95122.75;5073077;28;20497;-75
2023/10/10 06:32:47;;;;;;;10.93;4.18;;;;;;;15.74;90.88;95127.38;5074955;28;20032;-75
2023/10/10 06:37:41;;;;;;;;;;;;;;;15.88;90.77;95120.38;5075442;28;20058;-74
2023/10/10 06:40:08;;;;;;;8.60;4.53;;;;;;;15.99;90.14;95129.44;5071906;28;19921;-74
2023/10/10 06:42:35;;;;;;;8.70;3.47;;;;;;;16.15;90.17;95124.59;5071403;28;20024;-74
2023/10/10 06:45:11;;;;;;;9.75;3.67;;;;;;;16.14;90.40;95128.25;5077681;28;20020;-74
2023/10/10 06:47:43;;;;;;;10.95;5.07;;;;;;;16.45;90.33;95132.84;5073126;28;20401;-74
2023/10/10 06:50:11;;;;;;;12.30;4.57;;;;;;;16.57;89.18;95133.06;5085116;28;20024;-73
2023/10/10 06:52:38;;;;;;;7.65;3.90;;;;;;;16.72;88.67;95131.06;5070855;28;20089;-74
2023/10/10 06:55:10;;;;;;;7.93;4.18;;;;;;;16.86;88.28;95130.81;5058304;28;20029;-74
2023/10/10 06:57:38;;;;;;;10.77;4.85;;;;;;;16.89;88.70;95132.22;5075762;28;20033;-74
2023/10/10 07:02:47;;;;;;;11.93;4.30;;;;;;;16.93;89.00;95128.19;4990362;28;20153;-73
2023/10/10 07:05:15;;;;;;;6.30;4.55;;;;;;;17.11;88.90;95130.16;4973801;28;20037;-74
2023/10/10 07:07:44;;;;;;;11.40;4.47;;;;;;;17.23;88.56;95134.53;4962093;28;20031;-74
2023/10/10 07:10:25;;;;;;;16.27;4.47;;;;;;;17.27;88.53;95127.88;4974178;28;20035;-74
2023/10/10 07:12:58;;;;;;;7.78;4.35;;;;;;;17.38;87.72;95134.28;4972680;28;20037;-76
2023/10/10 07:15:27;;;;;;;10.30;4.07;;;;;;;17.43;88.29;95133.66;4964581;28;20033;-74
2023/10/10 07:18:04;;;;;;;;;;;;;;;17.39;88.44;95144.56;4976500;28;20065;-75
2023/10/10 07:23:20;;;;;;;12.50;4.30;;;;;;;17.38;88.11;95132.47;4971099;28;20116;-72
2023/10/10 07:25:58;;;;;;;9.00;4.30;;;;;;;17.46;88.48;95141.09;4979690;28;20113;-76
2023/10/10 07:28:26;;;;;;;16.35;4.75;;;;;;;17.51;88.24;95136.84;4979273;28;20031;-74
2023/10/10 07:30:51;;;;;;;10.95;4.60;;;;;;;17.50;88.35;95134.44;4973574;28;20073;-76
2023/10/10 07:33:22;;;;;;;8.43;4.60;;;;;;;17.54;87.97;95135.59;4975037;28;20117;-76
2023/10/10 07:35:53;;;;;;;17.75;4.45;;;;;;;17.62;87.83;95130.19;4976835;28;20084;-77
2023/10/10 07:38:24;;;;;;;11.77;4.53;;;;;;;17.78;87.50;95145.41;4974215;28;20038;-77
2023/10/10 07:40:52;;;;;;;13.60;4.68;;;;;;;17.83;87.40;95140.31;4965370;28;20034;-77
2023/10/10 07:43:17;;;;;;;7.05;4.28;;;;;;;17.84;86.56;95140.13;4973307;28;20022;-75
2023/10/10 07:45:43;;;;;;;18.02;5.43;;;;;;;17.79;87.01;95137.31;4969187;28;20046;-76
2023/10/10 07:50:35;;;;;;;8.75;4.88;;;;;;;17.83;86.64;95141.13;4979080;28;20058;-76
2023/10/10 07:53:12;;;;;;;10.55;4.03;;;;;;;17.73;87.07;95137.34;4972084;28;20579;-77
2023/10/10 07:58:27;;;;;;;8.23;4.40;;;;;;;17.77;87.21;95143.78;4976482;28;20042;-76
2023/10/10 08:01:08;;;;;;;8.80;4.78;;;;;;;17.83;86.70;95140.31;4977541;28;20117;-75
2023/10/10 08:03:34;;;;;;;9.52;4.90;;;;;;;17.93;86.46;95143.28;4977345;28;20049;-77
2023/10/10 08:06:00;;;;;;;7.55;3.75;;;;;;;17.98;86.69;95143.44;4971048;28;20061;-77
2023/10/10 08:08:26;;;;;;;8.60;4.07;;;;;;;18.08;85.65;95137.75;4971668;28;20062;-77
2023/10/10 08:10:51;;;;;;;8.95;4.50;;;;;;;18.11;85.88;95140.75;4973950;28;20022;-76
2023/10/10 08:13:17;;;;;;;10.98;4.05;;;;;;;18.50;84.74;95137.06;4973254;28;20038;-75
2023/10/10 08:21:10;;;;;;;8.10;3.97;;;;;;;21.99;67.29;95122.91;4976714;28;20472;-76
2023/10/10 08:23:37;;;;;;;12.45;3.83;;;;;;;21.32;70.90;95117.38;4976772;28;20507;-77
2023/10/10 08:26:02;;;;;;;8.82;3.92;;;;;;;20.59;72.55;95121.53;4975258;28;20517;-78
2023/10/10 08:28:28;;;;;;;10.73;4.90;;;;;;;20.24;74.71;95121.47;4975021;28;20038;-75
2023/10/10 08:30:53;;;;;;;15.02;4.55;;;;;;;20.61;73.84;95116.88;4973662;28;20038;-76
2023/10/10 08:33:19;;;;;;;9.82;4.45;;;;;;;20.41;73.70;95114.56;4979125;28;20113;-77
2023/10/10 08:35:46;;;;;;;12.10;4.30;;;;;;;20.66;73.36;95119.59;4957741;28;20027;-76
2023/10/10 08:38:14;;;;;;;9.13;4.65;;;;;;;20.61;73.42;95122.13;4973918;28;20046;-78
2023/10/10 08:40:43;;;;;;;6.80;4.68;;;;;;;20.47;73.55;95117.09;4961625;28;20098;-77
2023/10/10 08:43:12;;;;;;;8.98;4.35;;;;;;;20.67;73.46;95129.13;4979457;28;20030;-76
2023/10/10 08:45:43;;;;;;;;;;;;;;;20.42;74.38;95127.47;4962927;28;20014;-78
2023/10/10 08:48:13;;;;;;;15.15;4.65;;;;;;;20.15;75.00;95121.00;4977082;28;19997;-76
2023/10/10 08:50:40;;;;;;;8.70;5.10;;;;;;;20.04;75.62;95124.38;4978582;28;20031;-75
2023/10/10 08:53:13;;;;;;;12.55;5.03;;;;;;;19.75;76.25;95118.13;4960562;28;20034;-76
2023/10/10 08:55:40;;;;;;;12.95;4.70;;;;;;;19.62;77.09;95114.91;4979816;28;20034;-76
2023/10/10 08:58:10;;;;;;;51.03;29.35;;;;;;;19.49;77.81;95110.59;4961040;28;20042;-76
2023/10/10 09:00:37;;;;;;;53.33;29.00;;;;;;;19.58;78.51;95111.09;4961699;28;20062;-76
2023/10/10 09:03:03;;;;;;;63.55;28.92;;;;;;;19.49;78.47;95125.56;4979305;28;20076;-75
2023/10/10 09:05:28;;;;;;;42.00;18.15;;;;;;;19.36;79.62;95126.50;4976744;28;20496;-78
2023/10/10 09:07:54;;;;;;;20.70;8.48;;;;;;;19.23;80.00;95135.31;4978092;28;20110;-77
2023/10/10 09:10:29;;;;;;;8.98;5.10;;;;;;;19.22;79.92;95132.91;4957372;28;20758;-77
2023/10/10 09:12:56;;;;;;;7.55;5.22;;;;;;;19.18;80.34;95132.56;4973015;28;20022;-79
2023/10/10 09:15:23;;;;;;;13.52;7.78;;;;;;;19.11;80.89;95134.44;4961031;28;20038;-76
2023/10/10 09:17:49;;;;;;;11.05;5.63;;;;;;;19.12;81.04;95141.31;4961326;28;20069;-79
2023/10/10 09:20:30;;;;;;;11.32;5.20;;;;;;;19.06;81.09;95141.38;4958377;28;20058;-77
2023/10/10 09:23:04;;;;;;;11.57;5.28;;;;;;;19.00;81.21;95139.63;4977876;28;20108;-78
2023/10/10 09:25:43;;;;;;;9.55;6.20;;;;;;;18.83;82.09;95142.00;4975639;28;20080;-76
2023/10/10 09:28:15;;;;;;;12.00;4.82;;;;;;;18.85;82.17;95142.59;4948233;28;20431;-81
2023/10/10 09:30:45;;;;;;;11.40;5.95;;;;;;;18.79;82.66;95151.34;4976586;28;20038;-80
2023/10/10 09:33:33;;;;;;;11.40;5.20;;;;;;;18.74;82.46;95152.00;4969924;28;20128;-76
2023/10/10 09:36:09;;;;;;;10.70;6.40;;;;;;;18.72;83.24;95148.00;4970307;28;20022;-77
2023/10/10 09:38:40;;;;;;;12.88;5.80;;;;;;;18.76;83.14;95149.13;4951968;28;20032;-76
2023/10/10 09:41:26;;;;;;;8.20;5.25;;;;;;;18.73;83.37;95141.69;4969095;28;20041;-76
2023/10/10 09:47:16;;;;;;;9.82;5.65;;;;;;;18.90;82.42;95143.56;4977994;28;20053;-79
2023/10/10 09:50:00;;;;;;;11.98;5.47;;;;;;;19.07;81.82;95145.63;4974974;28;21119;-76
2023/10/10 09:57:58;;;;;;;14.30;6.40;;;;;;;19.01;82.59;95141.25;4975796;28;20033;-78
2023/10/10 10:00:33;;;;;;;16.50;8.85;;;;;;;19.09;82.10;95135.69;4967329;28;20047;-85
2023/10/10 10:03:25;;;;;;;12.98;7.50;;;;;;;19.08;82.19;95142.75;4966940;28;20043;-77
2023/10/10 10:05:58;;;;;;;30.88;14.90;;;;;;;19.19;81.79;95142.06;4972823;28;20034;-77
2023/10/10 10:08:37;;;;;;;30.60;15.95;;;;;;;19.41;80.85;95127.47;4963819;28;20038;-76
2023/10/10 10:11:11;;;;;;;;;;;;;;;19.36;80.66;95124.66;4960041;28;20420;-77
2023/10/10 10:14:12;;;;;;;6.53;4.72;;;;;;;19.51;80.10;95113.00;4944175;28;19969;-80
2023/10/10 10:16:48;;;;;;;9.00;5.40;;;;;;;20.14;78.23;95119.38;4974399;28;20080;-78
2023/10/10 10:19:19;;;;;;;12.40;4.88;;;;;;;20.33;76.41;95110.41;4955120;28;20023;-77
2023/10/10 10:22:07;;;;;;;7.63;5.38;;;;;;;20.66;75.87;95111.69;4973606;28;20392;-79
2023/10/10 10:24:52;;;;;;;7.90;4.93;;;;;;;20.29;76.31;95119.78;4975235;28;20074;-78
2023/10/10 10:27:39;;;;;;;9.32;4.75;;;;;;;20.14;76.33;95115.94;4975395;28;20039;-81
2023/10/10 10:30:50;;;;;;;10.00;4.90;;;;;;;20.50;75.28;95119.25;4977233;28;20331;-77
2023/10/10 10:32:59;;;;;;;8.02;4.60;;;;;;;20.67;74.76;95114.13;4984589;28;20503;-77
2023/10/10 10:35:46;;;;;;;14.48;5.18;;;;;;;20.61;74.94;95119.50;4975758;28;20034;-78
2023/10/10 10:38:11;;;;;;;8.13;4.75;;;;;;;20.43;74.76;95121.19;4978430;28;20172;-79
2023/10/10 10:43:14;;;;;;;11.68;5.30;;;;;;;20.23;75.81;95114.59;4980195;28;20125;-77
2023/10/10 10:45:44;;;;;;;12.18;4.97;;;;;;;20.33;76.39;95102.53;4978683;28;20030;-77
2023/10/10 10:48:30;;;;;;;9.23;4.95;;;;;;;20.34;75.75;95108.59;4979292;28;20107;-76
2023/10/10 10:51:22;;;;;;;12.65;4.75;;;;;;;20.18;76.69;95112.66;4979293;28;20022;-78
2023/10/10 10:53:50;;;;;;;9.82;4.55;;;;;;;20.05;76.59;95104.16;4977192;28;20049;-79
2023/10/10 11:01:28;;;;;;;8.05;5.05;;;;;;;19.59;78.65;95100.34;4976124;28;20075;-77
2023/10/10 11:03:55;;;;;;;11.45;5.30;;;;;;;19.47;79.65;95112.66;4979586;28;20105;-78
2023/10/10 11:06:24;;;;;;;7.75;5.00;;;;;;;19.31;79.83;95107.97;4977541;28;20038;-78
2023/10/10 11:13:54;;;;;;;8.35;4.80;;;;;;;19.11;82.33;95116.06;4978695;28;20575;-77
2023/10/10 11:16:24;;;;;;;14.02;4.90;;;;;;;19.01;82.11;95115.00;4963333;28;20411;-78
2023/10/10 11:18:57;;;;;;;11.10;4.75;;;;;;;19.00;82.47;95116.00;4978675;28;20049;-77
2023/10/10 11:21:28;;;;;;;10.82;4.72;;;;;;;18.98;82.61;95110.94;4979512;28;20157;-77
2023/10/10 11:23:57;;;;;;;9.57;5.40;;;;;;;19.17;82.23;95109.94;4970345;28;20019;-79
2023/10/10 11:26:23;;;;;;;7.90;5.03;;;;;;;19.33;81.35;95105.91;4973621;28;20116;-78
2023/10/10 11:28:49;;;;;;;9.55;4.38;;;;;;;19.62;81.36;95102.53;4977904;28;20094;-78
2023/10/10 11:31:23;;;;;;;6.65;4.13;;;;;;;19.84;80.03;95106.25;4979735;28;20131;-78
2023/10/10 11:33:49;;;;;;;7.70;4.28;;;;;;;20.03;78.14;95104.41;4978700;28;20023;-77
2023/10/10 11:36:40;;;;;;;9.80;4.57;;;;;;;19.94;78.69;95106.53;4958330;28;20496;-78
2023/10/10 11:39:31;;;;;;;5.82;3.45;;;;;;;19.90;79.54;95102.78;4968531;28;20113;-76
2023/10/10 11:41:56;;;;;;;7.93;3.67;;;;;;;19.87;80.36;95113.69;4977551;28;20517;-78
2023/10/10 11:44:22;;;;;;;8.10;3.92;;;;;;;19.83;80.76;95107.31;4978090;28;20026;-78
2023/10/10 11:46:49;;;;;;;4.50;3.53;;;;;;;19.88;79.95;95109.25;4978301;28;20023;-78
2023/10/10 11:49:18;;;;;;;5.15;3.15;;;;;;;19.84;79.86;95108.13;4977603;28;20105;-78
2023/10/10 11:51:43;;;;;;;10.20;3.28;;;;;;;19.73;79.75;95112.31;4977685;28;20084;-79
2023/10/10 11:54:08;;;;;;;6.00;3.00;;;;;;;19.57;79.18;95105.03;4976192;28;20030;-79
2023/10/10 11:56:34;;;;;;;6.43;3.10;;;;;;;19.51;79.26;95105.94;4979370;28;20031;-78
2023/10/10 11:59:13;;;;;;;11.48;3.20;;;;;;;19.44;82.24;95110.47;4976129;28;20403;-82
2023/10/10 12:01:54;;;;;;;7.32;3.35;;;;;;;19.42;84.40;95109.88;4971996;28;20142;-82
2023/10/10 12:04:32;;;;;;;7.10;2.90;;;;;;;19.26;85.53;95108.63;4971196;28;20030;-82
2023/10/10 12:07:03;;;;;;;6.20;3.20;;;;;;;19.13;86.19;95108.78;4965251;28;20018;-84
2023/10/10 12:09:29;;;;;;;4.45;2.97;;;;;;;19.10;86.79;95109.22;4979990;28;20045;-78
2023/10/10 12:11:58;;;;;;;3.47;2.80;;;;;;;19.19;87.35;95105.28;4973471;28;20042;-82
2023/10/10 12:14:29;;;;;;;6.35;2.80;;;;;;;19.02;88.14;95106.88;4975898;28;20026;-83
2023/10/10 12:16:57;;;;;;;5.47;3.20;;;;;;;18.88;89.85;95110.66;4976780;28;20034;-78
2023/10/10 12:19:23;;;;;;;7.72;2.70;;;;;;;19.00;89.29;95111.56;4979817;28;20496;-78
2023/10/10 12:21:50;;;;;;;4.95;2.58;;;;;;;19.13;88.09;95115.84;4969767;28;20042;-83
2023/10/10 12:24:15;;;;;;;4.25;2.63;;;;;;;18.90;88.46;95111.25;4965328;28;20073;-79
2023/10/10 12:26:41;;;;;;;10.73;2.67;;;;;;;18.93;87.42;95116.06;4966483;28;20980;-79
2023/10/10 12:29:10;;;;;;;6.25;2.83;;;;;;;18.85;87.00;95113.72;4960997;28;20072;-81
2023/10/10 12:31:36;;;;;;;4.40;2.65;;;;;;;18.98;86.67;95110.94;4980342;28;20026;-77
2023/10/10 12:34:03;;;;;;;6.38;2.85;;;;;;;18.85;87.29;95111.09;4977121;28;20026;-77
2023/10/10 12:36:28;;;;;;;6.55;3.60;;;;;;;18.85;89.69;95119.78;4978630;28;20030;-76
2023/10/10 12:38:55;;;;;;;6.20;3.67;;;;;;;18.80;92.16;95117.00;4979511;28;20492;-76
2023/10/10 12:41:20;;;;;;;8.07;4.10;;;;;;;18.73;91.65;95115.47;4975308;28;20059;-77
2023/10/10 12:43:50;;;;;;;2.38;1.80;;;;;;;18.67;91.21;95111.06;4978870;28;20034;-77
2023/10/10 12:46:22;;;;;;;1.77;0.88;;;;;;;18.49;91.69;95118.88;4977052;28;20034;-77
2023/10/10 12:48:51;;;;;;;1.77;0.80;;;;;;;18.40;91.25;95124.38;4980262;28;20018;-77
2023/10/10 12:51:16;;;;;;;1.27;1.05;;;;;;;18.43;90.88;95118.72;4973220;28;20593;-77
2023/10/10 12:53:44;;;;;;;1.73;0.80;;;;;;;18.64;91.26;95128.06;4976548;28;20060;-78
2023/10/10 12:56:21;;;;;;;1.20;0.80;;;;;;;18.65;92.34;95126.25;4976969;28;20046;-77
2023/10/10 12:58:52;;;;;;;1.58;0.90;;;;;;;18.83;92.31;95126.25;4979000;28;20091;-77
2023/10/10 13:01:25;;;;;;;2.47;1.27;;;;;;;18.92;91.86;95128.38;4977545;28;20053;-77
2023/10/10 13:03:51;;;;;;;3.42;1.50;;;;;;;18.93;90.21;95116.06;4977164;28;20034;-76
2023/10/10 13:06:17;;;;;;;4.18;1.40;;;;;;;18.91;90.80;95124.16;4960838;28;20040;-77
2023/10/10 13:08:54;;;;;;;3.72;1.23;;;;;;;18.89;90.86;95118.31;4978423;28;20022;-77
2023/10/10 13:11:35;;;;;;;2.72;1.17;;;;;;;18.93;90.65;95122.13;4978080;28;20035;-77
2023/10/10 13:14:14;;;;;;;1.80;1.15;;;;;;;19.02;90.48;95129.69;4978839;28;20027;-78
2023/10/10 13:19:09;;;;;;;2.00;1.40;;;;;;;18.71;90.50;95130.63;4978535;28;20042;-77
2023/10/10 13:21:39;;;;;;;4.00;1.50;;;;;;;18.48;91.49;95123.34;4976716;28;20469;-77
2023/10/10 13:24:11;;;;;;;4.05;1.60;;;;;;;18.38;93.80;95129.06;4978593;28;20471;-77
2023/10/10 13:26:42;;;;;;;3.00;1.48;;;;;;;18.28;95.37;95126.09;4977501;28;20542;-76
2023/10/10 13:29:08;;;;;;;3.97;1.23;;;;;;;18.21;95.07;95120.09;4977222;28;20018;-77
2023/10/10 13:31:34;;;;;;;4.05;0.88;;;;;;;18.15;95.34;95128.03;4978003;28;20044;-76
2023/10/10 13:34:01;;;;;;;2.35;1.00;;;;;;;17.71;99.57;95134.97;4977986;28;20030;-76
2023/10/10 13:36:27;;;;;;;1.50;1.40;;;;;;;17.75;100.00;95130.91;4961931;28;20034;-76
2023/10/10 13:38:57;;;;;;;2.40;1.50;;;;;;;17.90;100.00;95136.66;4977703;28;20027;-76
2023/10/10 13:41:27;;;;;;;2.78;1.88;;;;;;;17.84;100.00;95134.88;4978352;28;20030;-78
2023/10/10 13:43:53;;;;;;;3.50;1.40;;;;;;;17.75;100.00;95141.41;4979002;28;20438;-77
2023/10/10 13:46:23;;;;;;;2.75;1.60;;;;;;;17.70;100.00;95130.72;4957840;28;20031;-78
2023/10/10 13:48:49;;;;;;;2.28;1.60;;;;;;;17.63;100.00;95139.63;4974404;28;20502;-77
2023/10/10 13:51:16;;;;;;;3.97;1.23;;;;;;;17.61;100.00;95137.22;4976560;28;20039;-76
2023/10/10 13:53:44;;;;;;;1.50;1.15;;;;;;;17.59;100.00;95141.88;4977437;28;20452;-77
2023/10/10 13:56:10;;;;;;;2.90;1.30;;;;;;;17.55;100.00;95140.69;4963825;28;20022;-78
2023/10/10 13:58:37;;;;;;;2.20;1.25;;;;;;;17.66;100.00;95141.84;4977800;28;20034;-78
2023/10/10 14:01:14;;;;;;;3.30;1.40;;;;;;;17.63;100.00;95142.25;4977808;28;20160;-79
2023/10/10 14:03:48;;;;;;;1.48;1.35;;;;;;;17.64;100.00;95146.47;4977010;28;20187;-78
2023/10/10 14:06:22;;;;;;;3.67;1.40;;;;;;;17.64;100.00;95141.25;4977872;28;20037;-79
2023/10/10 14:08:48;;;;;;;5.22;1.20;;;;;;;17.63;100.00;95137.81;4976314;28;20494;-79
2023/10/10 14:11:24;;;;;;;1.95;1.10;;;;;;;17.54;100.00;95139.03;4961351;28;20041;-80
2023/10/10 14:13:51;;;;;;;4.95;1.20;;;;;;;17.55;100.00;95137.22;4963870;28;20022;-79
2023/10/10 14:16:17;;;;;;;2.63;1.05;;;;;;;17.53;100.00;95139.25;4980921;28;20023;-79
2023/10/10 14:18:46;;;;;;;1.98;1.10;;;;;;;17.50;100.00;95139.69;4980699;28;20029;-78
2023/10/10 14:21:13;;;;;;;1.15;1.00;;;;;;;17.48;100.00;95133.81;4979958;28;20061;-79
2023/10/10 14:23:39;;;;;;;1.92;0.95;;;;;;;17.45;100.00;95142.91;4982157;28;20030;-78
2023/10/10 14:26:18;;;;;;;3.22;1.10;;;;;;;17.48;100.00;95141.69;4979347;28;20042;-79
2023/10/10 14:28:50;;;;;;;;;;;;;;;17.43;100.00;95136.28;4967073;28;20049;-79
2023/10/10 14:31:21;;;;;;;1.77;1.08;;;;;;;17.46;100.00;95134.06;4980185;28;19979;-76
2023/10/10 14:33:50;;;;;;;3.00;1.15;;;;;;;17.43;100.00;95129.22;4979958;28;20639;-79
2023/10/10 14:36:16;;;;;;;2.58;1.30;;;;;;;17.43;100.00;95131.84;4981029;28;20034;-80
2023/10/10 14:38:46;;;;;;;3.47;1.10;;;;;;;17.45;100.00;95123.78;4979176;28;20023;-77
2023/10/10 14:41:18;;;;;;;1.55;0.80;;;;;;;17.44;100.00;95128.19;4980816;28;20462;-78
2023/10/10 14:43:50;;;;;;;6.38;1.23;;;;;;;17.43;100.00;95123.19;4978869;28;20381;-78
2023/10/10 14:46:27;;;;;;;4.22;0.90;;;;;;;17.46;100.00;95130.63;4980771;28;20031;-78